sensor_id;sensor_type;location;lat;lon;timestamp;P1;P2;P0
73825;PMS5003;64145;55.060;73.168;2024-03-29T00:00:56;0.00;0.00;0.00
73825;PMS5003;64145;55.060;73.168;2024-03-29T00:03:22;0.00;0.00;0.00
73825;PMS5003;64145;55.060;73.168;2024-03-29T00:05:48;0.00;0.00;0.00
73825;PMS5003;64145;55.060;73.168;2024-03-29T00:08:13;0.00;0.00;0.00
73825;PMS5003;64145;55.060;73.168;2024-03-29T00:10:39;0.00;0.00;0.00
73825;PMS5003;64145;55.060;73.168;2024-03-29T00:13:05;0.00;0.00;0.00
73825;PMS5003;64145;55.060;73.168;2024-03-29T00:15:34;0.00;0.00;0.00
73825;PMS5003;64145;55.060;73.168;2024-03-29T00:17:59;0.00;0.00;0.00
73825;PMS5003;64145;55.060;73.168;2024-03-29T00:20:25;0.00;0.00;0.00
73825;PMS5003;64145;55.060;73.168;2024-03-29T00:22:51;0.00;0.00;0.00
73825;PMS5003;64145;55.060;73.168;2024-03-29T00:25:17;0.00;0.00;0.00
73825;PMS5003;64145;55.060;73.168;2024-03-29T00:27:42;0.00;0.00;0.00
73825;PMS5003;64145;55.060;73.168;2024-03-29T00:30:09;0.00;0.00;0.00
73825;PMS5003;64145;55.060;73.168;2024-03-29T00:32:35;0.00;0.00;0.00
73825;PMS5003;64145;55.060;73.168;2024-03-29T00:35:01;0.00;0.00;0.00
73825;PMS5003;64145;55.060;73.168;2024-03-29T00:37:26;0.00;0.00;0.00
73825;PMS5003;64145;55.060;73.168;2024-03-29T00:39:52;0.00;0.00;0.00
73825;PMS5003;64145;55.060;73.168;2024-03-29T00:42:18;0.00;0.00;0.00
73825;PMS5003;64145;55.060;73.168;2024-03-29T00:44:45;0.00;0.00;0.00
73825;PMS5003;64145;55.060;73.168;2024-03-29T00:47:11;0.00;0.00;0.00
73825;PMS5003;64145;55.060;73.168;2024-03-29T00:49:36;0.00;0.00;0.00
73825;PMS5003;64145;55.060;73.168;2024-03-29T00:52:03;2.50;2.00;1.00
73825;PMS5003;64145;55.060;73.168;2024-03-29T00:54:29;0.00;0.00;0.00
73825;PMS5003;64145;55.060;73.168;2024-03-29T00:56:54;0.00;0.00;0.00
73825;PMS5003;64145;55.060;73.168;2024-03-29T00:59:20;0.00;0.00;0.00
73825;PMS5003;64145;55.060;73.168;2024-03-29T01:01:46;0.00;0.00;0.00
73825;PMS5003;64145;55.060;73.168;2024-03-29T01:04:12;0.00;0.00;0.00
73825;PMS5003;64145;55.060;73.168;2024-03-29T01:06:37;0.00;0.00;0.00
73825;PMS5003;64145;55.060;73.168;2024-03-29T01:09:04;0.00;0.00;0.00
73825;PMS5003;64145;55.060;73.168;2024-03-29T01:11:30;0.00;0.00;0.00
73825;PMS5003;64145;55.060;73.168;2024-03-29T01:13:55;0.00;0.00;0.00
73825;PMS5003;64145;55.060;73.168;2024-03-29T01:16:22;0.00;0.00;0.00
73825;PMS5003;64145;55.060;73.168;2024-03-29T01:18:47;0.00;0.00;0.00
73825;PMS5003;64145;55.060;73.168;2024-03-29T01:21:13;0.00;0.00;0.00
73825;PMS5003;64145;55.060;73.168;2024-03-29T01:23:39;0.00;0.00;0.00
73825;PMS5003;64145;55.060;73.168;2024-03-29T01:26:06;0.00;0.00;0.00
73825;PMS5003;64145;55.060;73.168;2024-03-29T01:28:32;0.00;0.00;0.00
73825;PMS5003;64145;55.060;73.168;2024-03-29T01:30:57;0.00;0.00;0.00
73825;PMS5003;64145;55.060;73.168;2024-03-29T01:33:26;0.00;0.00;0.00
73825;PMS5003;64145;55.060;73.168;2024-03-29T01:35:52;0.00;0.00;0.00
73825;PMS5003;64145;55.060;73.168;2024-03-29T01:38:18;0.00;0.00;0.00
73825;PMS5003;64145;55.060;73.168;2024-03-29T01:40:44;0.50;0.50;0.50
73825;PMS5003;64145;55.060;73.168;2024-03-29T01:43:10;0.00;0.00;0.00
73825;PMS5003;64145;55.060;73.168;2024-03-29T01:45:36;0.33;0.33;0.00
73825;PMS5003;64145;55.060;73.168;2024-03-29T01:48:05;1.50;1.00;0.00
73825;PMS5003;64145;55.060;73.168;2024-03-29T01:50:31;0.00;0.00;0.00
73825;PMS5003;64145;55.060;73.168;2024-03-29T01:52:57;0.00;0.00;0.00
73825;PMS5003;64145;55.060;73.168;2024-03-29T01:55:23;0.00;0.00;0.00
73825;PMS5003;64145;55.060;73.168;2024-03-29T01:57:49;0.00;0.00;0.00
73825;PMS5003;64145;55.060;73.168;2024-03-29T02:00:16;0.33;0.33;0.00
73825;PMS5003;64145;55.060;73.168;2024-03-29T02:02:42;0.00;0.00;0.00
73825;PMS5003;64145;55.060;73.168;2024-03-29T02:05:07;0.00;0.00;0.00
73825;PMS5003;64145;55.060;73.168;2024-03-29T02:07:33;0.00;0.00;0.00
73825;PMS5003;64145;55.060;73.168;2024-03-29T02:10:00;0.00;0.00;0.00
73825;PMS5003;64145;55.060;73.168;2024-03-29T02:12:25;0.00;0.00;0.00
73825;PMS5003;64145;55.060;73.168;2024-03-29T02:14:51;0.00;0.00;0.00
73825;PMS5003;64145;55.060;73.168;2024-03-29T02:17:17;0.00;0.00;0.00
73825;PMS5003;64145;55.060;73.168;2024-03-29T02:19:42;0.00;0.00;0.00
73825;PMS5003;64145;55.060;73.168;2024-03-29T02:22:08;0.00;0.00;0.00
73825;PMS5003;64145;55.060;73.168;2024-03-29T02:24:39;0.00;0.00;0.00
73825;PMS5003;64145;55.060;73.168;2024-03-29T02:27:05;0.00;0.00;0.00
73825;PMS5003;64145;55.060;73.168;2024-03-29T02:29:30;0.00;0.00;0.00
73825;PMS5003;64145;55.060;73.168;2024-03-29T02:31:56;0.00;0.00;0.00
73825;PMS5003;64145;55.060;73.168;2024-03-29T02:34:22;0.00;0.00;0.00
73825;PMS5003;64145;55.060;73.168;2024-03-29T02:36:48;0.00;0.00;0.00
73825;PMS5003;64145;55.060;73.168;2024-03-29T02:39:14;0.00;0.00;0.00
73825;PMS5003;64145;55.060;73.168;2024-03-29T02:41:40;0.00;0.00;0.00
73825;PMS5003;64145;55.060;73.168;2024-03-29T02:44:05;0.00;0.00;0.00
73825;PMS5003;64145;55.060;73.168;2024-03-29T02:46:31;0.00;0.00;0.00
73825;PMS5003;64145;55.060;73.168;2024-03-29T02:48:57;0.00;0.00;0.00
73825;PMS5003;64145;55.060;73.168;2024-03-29T02:51:22;0.00;0.00;0.00
73825;PMS5003;64145;55.060;73.168;2024-03-29T02:53:48;0.00;0.00;0.00
73825;PMS5003;64145;55.060;73.168;2024-03-29T02:56:14;0.00;0.00;0.00
73825;PMS5003;64145;55.060;73.168;2024-03-29T02:58:44;0.00;0.00;0.00
73825;PMS5003;64145;55.060;73.168;2024-03-29T03:01:09;0.00;0.00;0.00
73825;PMS5003;64145;55.060;73.168;2024-03-29T03:03:35;0.00;0.00;0.00
73825;PMS5003;64145;55.060;73.168;2024-03-29T03:06:01;0.00;0.00;0.00
73825;PMS5003;64145;55.060;73.168;2024-03-29T03:08:29;0.00;0.00;0.00
73825;PMS5003;64145;55.060;73.168;2024-03-29T03:11:13;0.00;0.00;0.00
73825;PMS5003;64145;55.060;73.168;2024-03-29T03:13:39;0.00;0.00;0.00
73825;PMS5003;64145;55.060;73.168;2024-03-29T03:16:05;0.00;0.00;0.00
73825;PMS5003;64145;55.060;73.168;2024-03-29T03:18:30;0.00;0.00;0.00
73825;PMS5003;64145;55.060;73.168;2024-03-29T03:20:56;0.00;0.00;0.00
73825;PMS5003;64145;55.060;73.168;2024-03-29T03:23:25;0.00;0.00;0.00
73825;PMS5003;64145;55.060;73.168;2024-03-29T03:25:58;0.00;0.00;0.00
73825;PMS5003;64145;55.060;73.168;2024-03-29T03:28:24;0.00;0.00;0.00
73825;PMS5003;64145;55.060;73.168;2024-03-29T03:30:50;0.00;0.00;0.00
73825;PMS5003;64145;55.060;73.168;2024-03-29T03:33:16;0.00;0.00;0.00
73825;PMS5003;64145;55.060;73.168;2024-03-29T03:35:42;0.00;0.00;0.00
73825;PMS5003;64145;55.060;73.168;2024-03-29T03:38:07;0.00;0.00;0.00
73825;PMS5003;64145;55.060;73.168;2024-03-29T03:40:34;0.00;0.00;0.00
73825;PMS5003;64145;55.060;73.168;2024-03-29T03:43:00;0.00;0.00;0.00
73825;PMS5003;64145;55.060;73.168;2024-03-29T03:45:26;0.00;0.00;0.00
73825;PMS5003;64145;55.060;73.168;2024-03-29T03:47:52;0.00;0.00;0.00
73825;PMS5003;64145;55.060;73.168;2024-03-29T03:50:18;0.00;0.00;0.00
73825;PMS5003;64145;55.060;73.168;2024-03-29T03:52:43;0.00;0.00;0.00
73825;PMS5003;64145;55.060;73.168;2024-03-29T03:55:09;0.00;0.00;0.00
73825;PMS5003;64145;55.060;73.168;2024-03-29T03:57:35;0.00;0.00;0.00
73825;PMS5003;64145;55.060;73.168;2024-03-29T04:00:00;0.00;0.00;0.00
73825;PMS5003;64145;55.060;73.168;2024-03-29T04:02:28;0.00;0.00;0.00
73825;PMS5003;64145;55.060;73.168;2024-03-29T04:04:54;0.00;0.00;0.00
73825;PMS5003;64145;55.060;73.168;2024-03-29T04:07:19;0.00;0.00;0.00
73825;PMS5003;64145;55.060;73.168;2024-03-29T04:09:45;0.00;0.00;0.00
73825;PMS5003;64145;55.060;73.168;2024-03-29T04:12:11;0.00;0.00;0.00
73825;PMS5003;64145;55.060;73.168;2024-03-29T04:14:37;0.00;0.00;0.00
73825;PMS5003;64145;55.060;73.168;2024-03-29T04:17:02;0.00;0.00;0.00
73825;PMS5003;64145;55.060;73.168;2024-03-29T04:19:28;0.00;0.00;0.00
73825;PMS5003;64145;55.060;73.168;2024-03-29T04:21:54;0.00;0.00;0.00
73825;PMS5003;64145;55.060;73.168;2024-03-29T04:24:20;0.00;0.00;0.00
73825;PMS5003;64145;55.060;73.168;2024-03-29T04:26:45;0.00;0.00;0.00
73825;PMS5003;64145;55.060;73.168;2024-03-29T04:29:12;0.00;0.00;0.00
73825;PMS5003;64145;55.060;73.168;2024-03-29T04:34:23;0.00;0.00;0.00
73825;PMS5003;64145;55.060;73.168;2024-03-29T04:36:49;0.00;0.00;0.00
73825;PMS5003;64145;55.060;73.168;2024-03-29T04:39:15;0.00;0.00;0.00
73825;PMS5003;64145;55.060;73.168;2024-03-29T04:41:41;0.00;0.00;0.00
73825;PMS5003;64145;55.060;73.168;2024-03-29T04:44:06;0.00;0.00;0.00
73825;PMS5003;64145;55.060;73.168;2024-03-29T04:46:33;0.00;0.00;0.00
73825;PMS5003;64145;55.060;73.168;2024-03-29T04:48:59;0.00;0.00;0.00
73825;PMS5003;64145;55.060;73.168;2024-03-29T04:51:25;0.00;0.00;0.00
73825;PMS5003;64145;55.060;73.168;2024-03-29T04:53:51;0.00;0.00;0.00
73825;PMS5003;64145;55.060;73.168;2024-03-29T04:56:16;0.00;0.00;0.00
73825;PMS5003;64145;55.060;73.168;2024-03-29T05:01:26;0.00;0.00;0.00
73825;PMS5003;64145;55.060;73.168;2024-03-29T05:03:52;0.00;0.00;0.00
73825;PMS5003;64145;55.060;73.168;2024-03-29T05:06:18;0.00;0.00;0.00
73825;PMS5003;64145;55.060;73.168;2024-03-29T05:08:59;0.00;0.00;0.00
73825;PMS5003;64145;55.060;73.168;2024-03-29T05:11:25;0.00;0.00;0.00
73825;PMS5003;64145;55.060;73.168;2024-03-29T05:13:50;0.00;0.00;0.00
73825;PMS5003;64145;55.060;73.168;2024-03-29T05:16:16;0.00;0.00;0.00
73825;PMS5003;64145;55.060;73.168;2024-03-29T05:18:43;0.00;0.00;0.00
73825;PMS5003;64145;55.060;73.168;2024-03-29T05:21:09;0.00;0.00;0.00
73825;PMS5003;64145;55.060;73.168;2024-03-29T05:23:35;0.00;0.00;0.00
73825;PMS5003;64145;55.060;73.168;2024-03-29T05:26:01;0.00;0.00;0.00
73825;PMS5003;64145;55.060;73.168;2024-03-29T05:28:27;0.00;0.00;0.00
73825;PMS5003;64145;55.060;73.168;2024-03-29T05:30:52;0.00;0.00;0.00
73825;PMS5003;64145;55.060;73.168;2024-03-29T05:33:36;0.00;0.00;0.00
73825;PMS5003;64145;55.060;73.168;2024-03-29T05:36:03;0.00;0.00;0.00
73825;PMS5003;64145;55.060;73.168;2024-03-29T05:38:30;0.00;0.00;0.00
73825;PMS5003;64145;55.060;73.168;2024-03-29T05:40:55;0.00;0.00;0.00
73825;PMS5003;64145;55.060;73.168;2024-03-29T05:43:21;0.00;0.00;0.00
73825;PMS5003;64145;55.060;73.168;2024-03-29T05:45:47;0.00;0.00;0.00
73825;PMS5003;64145;55.060;73.168;2024-03-29T05:48:17;0.00;0.00;0.00
73825;PMS5003;64145;55.060;73.168;2024-03-29T05:50:44;0.00;0.00;0.00
73825;PMS5003;64145;55.060;73.168;2024-03-29T05:53:10;0.00;0.00;0.00
73825;PMS5003;64145;55.060;73.168;2024-03-29T05:55:36;0.00;0.00;0.00
73825;PMS5003;64145;55.060;73.168;2024-03-29T05:58:02;0.00;0.00;0.00
73825;PMS5003;64145;55.060;73.168;2024-03-29T06:00:28;0.00;0.00;0.00
73825;PMS5003;64145;55.060;73.168;2024-03-29T06:02:54;0.00;0.00;0.00
73825;PMS5003;64145;55.060;73.168;2024-03-29T06:05:20;0.00;0.00;0.00
73825;PMS5003;64145;55.060;73.168;2024-03-29T06:07:46;0.00;0.00;0.00
73825;PMS5003;64145;55.060;73.168;2024-03-29T06:10:11;0.00;0.00;0.00
73825;PMS5003;64145;55.060;73.168;2024-03-29T06:12:37;0.00;0.00;0.00
73825;PMS5003;64145;55.060;73.168;2024-03-29T06:15:04;0.00;0.00;0.00
73825;PMS5003;64145;55.060;73.168;2024-03-29T06:17:49;0.50;0.50;0.00
73825;PMS5003;64145;55.060;73.168;2024-03-29T06:20:15;0.00;0.00;0.00
73825;PMS5003;64145;55.060;73.168;2024-03-29T06:22:40;0.50;0.50;0.50
73825;PMS5003;64145;55.060;73.168;2024-03-29T06:25:06;10.50;9.50;7.50
73825;PMS5003;64145;55.060;73.168;2024-03-29T06:27:32;16.00;15.00;11.00
73825;PMS5003;64145;55.060;73.168;2024-03-29T06:29:58;8.00;7.67;5.33
73825;PMS5003;64145;55.060;73.168;2024-03-29T06:32:43;1.50;1.50;0.00
73825;PMS5003;64145;55.060;73.168;2024-03-29T06:35:10;0.00;0.00;0.00
73825;PMS5003;64145;55.060;73.168;2024-03-29T06:37:56;0.00;0.00;0.00
73825;PMS5003;64145;55.060;73.168;2024-03-29T06:40:21;0.00;0.00;0.00
73825;PMS5003;64145;55.060;73.168;2024-03-29T06:42:47;0.00;0.00;0.00
73825;PMS5003;64145;55.060;73.168;2024-03-29T06:45:13;0.00;0.00;0.00
73825;PMS5003;64145;55.060;73.168;2024-03-29T06:47:38;12.50;11.50;8.50
73825;PMS5003;64145;55.060;73.168;2024-03-29T06:50:05;5.33;5.33;3.33
73825;PMS5003;64145;55.060;73.168;2024-03-29T06:52:30;0.00;0.00;0.00
73825;PMS5003;64145;55.060;73.168;2024-03-29T06:54:56;0.00;0.00;0.00
73825;PMS5003;64145;55.060;73.168;2024-03-29T06:57:22;0.00;0.00;0.00
73825;PMS5003;64145;55.060;73.168;2024-03-29T06:59:51;0.00;0.00;0.00
73825;PMS5003;64145;55.060;73.168;2024-03-29T07:02:16;0.00;0.00;0.00
73825;PMS5003;64145;55.060;73.168;2024-03-29T07:04:42;0.00;0.00;0.00
73825;PMS5003;64145;55.060;73.168;2024-03-29T07:07:08;0.00;0.00;0.00
73825;PMS5003;64145;55.060;73.168;2024-03-29T07:09:33;0.00;0.00;0.00
73825;PMS5003;64145;55.060;73.168;2024-03-29T07:11:59;0.00;0.00;0.00
73825;PMS5003;64145;55.060;73.168;2024-03-29T07:14:25;0.00;0.00;0.00
73825;PMS5003;64145;55.060;73.168;2024-03-29T07:16:52;0.00;0.00;0.00
73825;PMS5003;64145;55.060;73.168;2024-03-29T07:19:18;0.00;0.00;0.00
73825;PMS5003;64145;55.060;73.168;2024-03-29T07:21:44;0.00;0.00;0.00
73825;PMS5003;64145;55.060;73.168;2024-03-29T07:24:10;0.00;0.00;0.00
73825;PMS5003;64145;55.060;73.168;2024-03-29T07:26:36;0.00;0.00;0.00
73825;PMS5003;64145;55.060;73.168;2024-03-29T07:29:02;0.00;0.00;0.00
73825;PMS5003;64145;55.060;73.168;2024-03-29T07:31:30;0.00;0.00;0.00
73825;PMS5003;64145;55.060;73.168;2024-03-29T07:33:56;0.00;0.00;0.00
73825;PMS5003;64145;55.060;73.168;2024-03-29T07:36:22;0.00;0.00;0.00
73825;PMS5003;64145;55.060;73.168;2024-03-29T07:38:50;0.00;0.00;0.00
73825;PMS5003;64145;55.060;73.168;2024-03-29T07:41:16;0.00;0.00;0.00
73825;PMS5003;64145;55.060;73.168;2024-03-29T07:43:57;0.00;0.00;0.00
73825;PMS5003;64145;55.060;73.168;2024-03-29T07:46:29;0.00;0.00;0.00
73825;PMS5003;64145;55.060;73.168;2024-03-29T07:48:56;0.00;0.00;0.00
73825;PMS5003;64145;55.060;73.168;2024-03-29T07:51:21;0.00;0.00;0.00
73825;PMS5003;64145;55.060;73.168;2024-03-29T07:53:47;0.00;0.00;0.00
73825;PMS5003;64145;55.060;73.168;2024-03-29T07:56:13;0.00;0.00;0.00
73825;PMS5003;64145;55.060;73.168;2024-03-29T07:58:39;0.00;0.00;0.00
73825;PMS5003;64145;55.060;73.168;2024-03-29T08:01:04;0.00;0.00;0.00
73825;PMS5003;64145;55.060;73.168;2024-03-29T08:03:31;0.00;0.00;0.00
73825;PMS5003;64145;55.060;73.168;2024-03-29T08:06:03;0.00;0.00;0.00
73825;PMS5003;64145;55.060;73.168;2024-03-29T08:08:35;0.00;0.00;0.00
73825;PMS5003;64145;55.060;73.168;2024-03-29T08:11:01;0.00;0.00;0.00
73825;PMS5003;64145;55.060;73.168;2024-03-29T08:13:27;0.00;0.00;0.00
73825;PMS5003;64145;55.060;73.168;2024-03-29T08:15:59;0.00;0.00;0.00
73825;PMS5003;64145;55.060;73.168;2024-03-29T08:18:26;0.00;0.00;0.00
73825;PMS5003;64145;55.060;73.168;2024-03-29T08:20:52;0.00;0.00;0.00
73825;PMS5003;64145;55.060;73.168;2024-03-29T08:23:23;0.00;0.00;0.00
73825;PMS5003;64145;55.060;73.168;2024-03-29T08:25:49;1.50;0.50;0.50
73825;PMS5003;64145;55.060;73.168;2024-03-29T08:28:19;0.00;0.00;0.00
73825;PMS5003;64145;55.060;73.168;2024-03-29T08:30:45;0.00;0.00;0.00
73825;PMS5003;64145;55.060;73.168;2024-03-29T08:33:11;0.00;0.00;0.00
73825;PMS5003;64145;55.060;73.168;2024-03-29T08:35:37;0.00;0.00;0.00
73825;PMS5003;64145;55.060;73.168;2024-03-29T08:38:04;0.00;0.00;0.00
73825;PMS5003;64145;55.060;73.168;2024-03-29T08:40:30;0.00;0.00;0.00
73825;PMS5003;64145;55.060;73.168;2024-03-29T08:42:57;0.00;0.00;0.00
73825;PMS5003;64145;55.060;73.168;2024-03-29T08:45:23;0.00;0.00;0.00
73825;PMS5003;64145;55.060;73.168;2024-03-29T08:47:49;0.00;0.00;0.00
73825;PMS5003;64145;55.060;73.168;2024-03-29T08:50:15;0.00;0.00;0.00
73825;PMS5003;64145;55.060;73.168;2024-03-29T08:52:41;0.00;0.00;0.00
73825;PMS5003;64145;55.060;73.168;2024-03-29T08:55:07;0.00;0.00;0.00
73825;PMS5003;64145;55.060;73.168;2024-03-29T08:57:33;0.00;0.00;0.00
73825;PMS5003;64145;55.060;73.168;2024-03-29T08:59:58;0.00;0.00;0.00
73825;PMS5003;64145;55.060;73.168;2024-03-29T09:02:24;0.00;0.00;0.00
73825;PMS5003;64145;55.060;73.168;2024-03-29T09:04:50;0.00;0.00;0.00
73825;PMS5003;64145;55.060;73.168;2024-03-29T09:07:16;0.00;0.00;0.00
73825;PMS5003;64145;55.060;73.168;2024-03-29T09:09:41;0.00;0.00;0.00
73825;PMS5003;64145;55.060;73.168;2024-03-29T09:12:08;0.00;0.00;0.00
73825;PMS5003;64145;55.060;73.168;2024-03-29T09:14:34;0.00;0.00;0.00
73825;PMS5003;64145;55.060;73.168;2024-03-29T09:16:59;0.00;0.00;0.00
73825;PMS5003;64145;55.060;73.168;2024-03-29T09:19:25;0.00;0.00;0.00
73825;PMS5003;64145;55.060;73.168;2024-03-29T09:21:52;0.00;0.00;0.00
73825;PMS5003;64145;55.060;73.168;2024-03-29T09:24:18;0.00;0.00;0.00
73825;PMS5003;64145;55.060;73.168;2024-03-29T09:26:45;0.00;0.00;0.00
73825;PMS5003;64145;55.060;73.168;2024-03-29T09:29:10;0.00;0.00;0.00
73825;PMS5003;64145;55.060;73.168;2024-03-29T09:31:38;0.00;0.00;0.00
73825;PMS5003;64145;55.060;73.168;2024-03-29T09:34:04;0.00;0.00;0.00
73825;PMS5003;64145;55.060;73.168;2024-03-29T09:36:29;0.00;0.00;0.00
73825;PMS5003;64145;55.060;73.168;2024-03-29T09:38:55;0.00;0.00;0.00
73825;PMS5003;64145;55.060;73.168;2024-03-29T09:41:21;0.00;0.00;0.00
73825;PMS5003;64145;55.060;73.168;2024-03-29T09:43:47;0.00;0.00;0.00
73825;PMS5003;64145;55.060;73.168;2024-03-29T09:46:13;0.00;0.00;0.00
73825;PMS5003;64145;55.060;73.168;2024-03-29T09:48:43;0.00;0.00;0.00
73825;PMS5003;64145;55.060;73.168;2024-03-29T09:51:11;0.00;0.00;0.00
73825;PMS5003;64145;55.060;73.168;2024-03-29T09:53:40;0.00;0.00;0.00
73825;PMS5003;64145;55.060;73.168;2024-03-29T09:56:17;0.00;0.00;0.00
73825;PMS5003;64145;55.060;73.168;2024-03-29T09:58:42;0.00;0.00;0.00
73825;PMS5003;64145;55.060;73.168;2024-03-29T10:01:08;0.00;0.00;0.00
73825;PMS5003;64145;55.060;73.168;2024-03-29T10:03:42;0.00;0.00;0.00
73825;PMS5003;64145;55.060;73.168;2024-03-29T10:06:08;0.00;0.00;0.00
73825;PMS5003;64145;55.060;73.168;2024-03-29T10:08:35;0.00;0.00;0.00
73825;PMS5003;64145;55.060;73.168;2024-03-29T10:11:02;0.00;0.00;0.00
73825;PMS5003;64145;55.060;73.168;2024-03-29T10:13:28;0.00;0.00;0.00
73825;PMS5003;64145;55.060;73.168;2024-03-29T10:15:54;0.00;0.00;0.00
73825;PMS5003;64145;55.060;73.168;2024-03-29T10:18:27;0.00;0.00;0.00
73825;PMS5003;64145;55.060;73.168;2024-03-29T10:21:03;0.00;0.00;0.00
73825;PMS5003;64145;55.060;73.168;2024-03-29T10:23:29;0.00;0.00;0.00
73825;PMS5003;64145;55.060;73.168;2024-03-29T10:25:55;0.00;0.00;0.00
73825;PMS5003;64145;55.060;73.168;2024-03-29T10:28:21;0.00;0.00;0.00
73825;PMS5003;64145;55.060;73.168;2024-03-29T10:30:47;0.00;0.00;0.00
73825;PMS5003;64145;55.060;73.168;2024-03-29T10:33:13;0.00;0.00;0.00
73825;PMS5003;64145;55.060;73.168;2024-03-29T10:35:43;0.00;0.00;0.00
73825;PMS5003;64145;55.060;73.168;2024-03-29T10:38:09;0.00;0.00;0.00
73825;PMS5003;64145;55.060;73.168;2024-03-29T10:40:36;0.00;0.00;0.00
73825;PMS5003;64145;55.060;73.168;2024-03-29T10:43:03;0.00;0.00;0.00
73825;PMS5003;64145;55.060;73.168;2024-03-29T10:45:34;0.00;0.00;0.00
73825;PMS5003;64145;55.060;73.168;2024-03-29T10:48:02;0.00;0.00;0.00
73825;PMS5003;64145;55.060;73.168;2024-03-29T10:50:30;0.00;0.00;0.00
73825;PMS5003;64145;55.060;73.168;2024-03-29T10:52:57;0.00;0.00;0.00
73825;PMS5003;64145;55.060;73.168;2024-03-29T10:55:27;0.00;0.00;0.00
73825;PMS5003;64145;55.060;73.168;2024-03-29T10:57:54;0.00;0.00;0.00
73825;PMS5003;64145;55.060;73.168;2024-03-29T11:00:21;0.00;0.00;0.00
73825;PMS5003;64145;55.060;73.168;2024-03-29T11:05:13;0.00;0.00;0.00
73825;PMS5003;64145;55.060;73.168;2024-03-29T11:13:02;0.00;0.00;0.00
73825;PMS5003;64145;55.060;73.168;2024-03-29T11:15:31;0.00;0.00;0.00
73825;PMS5003;64145;55.060;73.168;2024-03-29T11:18:00;0.00;0.00;0.00
73825;PMS5003;64145;55.060;73.168;2024-03-29T11:20:26;0.00;0.00;0.00
73825;PMS5003;64145;55.060;73.168;2024-03-29T11:23:03;0.00;0.00;0.00
73825;PMS5003;64145;55.060;73.168;2024-03-29T11:25:41;0.00;0.00;0.00
73825;PMS5003;64145;55.060;73.168;2024-03-29T11:28:08;0.00;0.00;0.00
73825;PMS5003;64145;55.060;73.168;2024-03-29T11:30:41;0.00;0.00;0.00
73825;PMS5003;64145;55.060;73.168;2024-03-29T11:33:24;0.00;0.00;0.00
73825;PMS5003;64145;55.060;73.168;2024-03-29T11:35:50;0.00;0.00;0.00
73825;PMS5003;64145;55.060;73.168;2024-03-29T11:38:19;0.00;0.00;0.00
73825;PMS5003;64145;55.060;73.168;2024-03-29T11:40:54;0.00;0.00;0.00
73825;PMS5003;64145;55.060;73.168;2024-03-29T11:43:22;0.00;0.00;0.00
73825;PMS5003;64145;55.060;73.168;2024-03-29T11:46:07;0.00;0.00;0.00
73825;PMS5003;64145;55.060;73.168;2024-03-29T11:48:33;0.00;0.00;0.00
73825;PMS5003;64145;55.060;73.168;2024-03-29T11:51:00;0.00;0.00;0.00
73825;PMS5003;64145;55.060;73.168;2024-03-29T11:53:26;0.00;0.00;0.00
73825;PMS5003;64145;55.060;73.168;2024-03-29T11:55:55;0.00;0.00;0.00
73825;PMS5003;64145;55.060;73.168;2024-03-29T11:58:22;0.00;0.00;0.00
73825;PMS5003;64145;55.060;73.168;2024-03-29T12:00:48;0.00;0.00;0.00
73825;PMS5003;64145;55.060;73.168;2024-03-29T12:03:15;0.00;0.00;0.00
73825;PMS5003;64145;55.060;73.168;2024-03-29T12:05:42;0.00;0.00;0.00
73825;PMS5003;64145;55.060;73.168;2024-03-29T12:08:08;0.00;0.00;0.00
73825;PMS5003;64145;55.060;73.168;2024-03-29T12:10:35;0.00;0.00;0.00
73825;PMS5003;64145;55.060;73.168;2024-03-29T12:13:01;0.00;0.00;0.00
73825;PMS5003;64145;55.060;73.168;2024-03-29T12:15:29;0.00;0.00;0.00
73825;PMS5003;64145;55.060;73.168;2024-03-29T12:17:58;0.00;0.00;0.00
73825;PMS5003;64145;55.060;73.168;2024-03-29T12:20:25;0.00;0.00;0.00
73825;PMS5003;64145;55.060;73.168;2024-03-29T12:22:50;0.00;0.00;0.00
73825;PMS5003;64145;55.060;73.168;2024-03-29T12:25:19;0.00;0.00;0.00
73825;PMS5003;64145;55.060;73.168;2024-03-29T12:27:46;0.00;0.00;0.00
73825;PMS5003;64145;55.060;73.168;2024-03-29T12:30:12;0.00;0.00;0.00
73825;PMS5003;64145;55.060;73.168;2024-03-29T12:32:39;0.00;0.00;0.00
73825;PMS5003;64145;55.060;73.168;2024-03-29T12:35:19;0.00;0.00;0.00
73825;PMS5003;64145;55.060;73.168;2024-03-29T12:37:49;0.00;0.00;0.00
73825;PMS5003;64145;55.060;73.168;2024-03-29T12:40:16;0.00;0.00;0.00
73825;PMS5003;64145;55.060;73.168;2024-03-29T12:42:44;0.00;0.00;0.00
73825;PMS5003;64145;55.060;73.168;2024-03-29T12:45:10;0.00;0.00;0.00
73825;PMS5003;64145;55.060;73.168;2024-03-29T12:47:36;0.00;0.00;0.00
73825;PMS5003;64145;55.060;73.168;2024-03-29T12:50:02;0.00;0.00;0.00
73825;PMS5003;64145;55.060;73.168;2024-03-29T12:52:39;0.00;0.00;0.00
73825;PMS5003;64145;55.060;73.168;2024-03-29T12:55:05;0.00;0.00;0.00
73825;PMS5003;64145;55.060;73.168;2024-03-29T12:57:32;0.00;0.00;0.00
73825;PMS5003;64145;55.060;73.168;2024-03-29T12:59:58;0.00;0.00;0.00
73825;PMS5003;64145;55.060;73.168;2024-03-29T13:02:24;0.00;0.00;0.00
73825;PMS5003;64145;55.060;73.168;2024-03-29T13:04:49;0.00;0.00;0.00
73825;PMS5003;64145;55.060;73.168;2024-03-29T13:07:16;0.00;0.00;0.00
73825;PMS5003;64145;55.060;73.168;2024-03-29T13:09:42;0.00;0.00;0.00
73825;PMS5003;64145;55.060;73.168;2024-03-29T13:12:08;0.00;0.00;0.00
73825;PMS5003;64145;55.060;73.168;2024-03-29T13:14:42;0.00;0.00;0.00
73825;PMS5003;64145;55.060;73.168;2024-03-29T13:17:18;0.00;0.00;0.00
73825;PMS5003;64145;55.060;73.168;2024-03-29T13:19:44;0.00;0.00;0.00
73825;PMS5003;64145;55.060;73.168;2024-03-29T13:22:10;0.00;0.00;0.00
73825;PMS5003;64145;55.060;73.168;2024-03-29T13:24:36;0.00;0.00;0.00
73825;PMS5003;64145;55.060;73.168;2024-03-29T13:27:02;0.00;0.00;0.00
73825;PMS5003;64145;55.060;73.168;2024-03-29T13:29:29;0.00;0.00;0.00
73825;PMS5003;64145;55.060;73.168;2024-03-29T13:31:56;0.00;0.00;0.00
73825;PMS5003;64145;55.060;73.168;2024-03-29T13:34:22;0.00;0.00;0.00
73825;PMS5003;64145;55.060;73.168;2024-03-29T13:36:47;0.00;0.00;0.00
73825;PMS5003;64145;55.060;73.168;2024-03-29T13:39:33;0.00;0.00;0.00
73825;PMS5003;64145;55.060;73.168;2024-03-29T13:41:59;0.00;0.00;0.00
73825;PMS5003;64145;55.060;73.168;2024-03-29T13:44:24;0.00;0.00;0.00
73825;PMS5003;64145;55.060;73.168;2024-03-29T13:46:50;0.00;0.00;0.00
73825;PMS5003;64145;55.060;73.168;2024-03-29T13:49:17;0.00;0.00;0.00
73825;PMS5003;64145;55.060;73.168;2024-03-29T13:51:46;0.00;0.00;0.00
73825;PMS5003;64145;55.060;73.168;2024-03-29T13:54:28;0.00;0.00;0.00
73825;PMS5003;64145;55.060;73.168;2024-03-29T13:56:56;0.00;0.00;0.00
73825;PMS5003;64145;55.060;73.168;2024-03-29T13:59:39;0.00;0.00;0.00
73825;PMS5003;64145;55.060;73.168;2024-03-29T14:02:10;0.00;0.00;0.00
73825;PMS5003;64145;55.060;73.168;2024-03-29T14:04:36;0.00;0.00;0.00
73825;PMS5003;64145;55.060;73.168;2024-03-29T14:07:16;0.00;0.00;0.00
73825;PMS5003;64145;55.060;73.168;2024-03-29T14:09:46;0.00;0.00;0.00
73825;PMS5003;64145;55.060;73.168;2024-03-29T14:12:13;0.00;0.00;0.00
73825;PMS5003;64145;55.060;73.168;2024-03-29T14:14:39;0.00;0.00;0.00
73825;PMS5003;64145;55.060;73.168;2024-03-29T14:17:04;0.00;0.00;0.00
73825;PMS5003;64145;55.060;73.168;2024-03-29T14:19:32;0.00;0.00;0.00
73825;PMS5003;64145;55.060;73.168;2024-03-29T14:22:04;0.00;0.00;0.00